Time;durP1;ratioP1;P1;durP2;ratioP2;P2;SDS_P1;SDS_P2;PMS_P1;PMS_P2;Temp;Humidity;BMP_temperature;BMP_pressure;BME280_temperature;BME280_humidity;BME280_pressure;Samples;Min_cycle;Max_cycle;Signal;HPM_P1;HPM_P2
2021/05/31 00:00:08;;;;;;;11.70;3.90;;;;;;;10.06;62.62;101362.64;1701121;83;26379;-74
2021/05/31 00:02:37;;;;;;;5.22;3.37;;;;;;;10.02;62.64;101359.97;1642463;84;25591;-73
2021/05/31 00:05:05;;;;;;;5.33;3.87;;;;;;;9.94;62.77;101355.94;1650853;84;25454;-74
2021/05/31 00:07:32;;;;;;;3.72;3.02;;;;;;;9.89;62.85;101357.77;1644703;83;25859;-74
2021/05/31 00:09:59;;;;;;;7.47;3.95;;;;;;;9.83;63.10;101353.57;1692441;83;28060;-74
2021/05/31 00:12:26;;;;;;;5.78;3.40;;;;;;;9.78;63.12;101354.55;1656690;83;25743;-74
2021/05/31 00:14:53;;;;;;;4.47;3.35;;;;;;;9.73;63.44;101356.89;1684269;83;25776;-74
2021/05/31 00:17:22;;;;;;;7.72;3.90;;;;;;;9.66;63.51;101351.36;1689145;81;26119;-74
2021/05/31 00:19:51;;;;;;;5.85;3.80;;;;;;;9.63;63.71;101351.67;1727161;81;25770;-74
2021/05/31 00:22:21;;;;;;;5.67;3.70;;;;;;;9.58;63.71;101348.63;1668214;83;27417;-74
2021/05/31 00:24:50;;;;;;;8.85;4.80;;;;;;;9.53;63.91;101346.96;1642707;86;25799;-74
2021/05/31 00:27:17;;;;;;;4.72;3.45;;;;;;;9.48;63.97;101347.09;1665893;84;25666;-74
2021/05/31 00:29:45;;;;;;;7.67;3.60;;;;;;;9.45;64.20;101346.09;1654085;85;26168;-74
2021/05/31 00:32:12;;;;;;;7.97;4.72;;;;;;;9.41;64.47;101348.76;1635102;84;25765;-73
2021/05/31 00:34:41;;;;;;;4.60;3.70;;;;;;;9.39;64.55;101341.39;1634053;85;28074;-74
2021/05/31 00:37:08;;;;;;;9.15;3.67;;;;;;;9.34;64.66;101340.02;1676827;83;25750;-74
2021/05/31 00:39:35;;;;;;;5.17;3.75;;;;;;;9.33;64.99;101341.03;1694083;83;25670;-74
2021/05/31 00:42:02;;;;;;;6.05;3.98;;;;;;;9.33;65.03;101329.48;1662907;84;26405;-74
2021/05/31 00:44:29;;;;;;;6.12;3.52;;;;;;;9.30;65.08;101333.84;1663478;84;25678;-73
2021/05/31 00:46:56;;;;;;;4.70;3.37;;;;;;;9.27;65.18;101330.98;1655163;83;28150;-73
2021/05/31 00:49:27;;;;;;;6.28;3.83;;;;;;;9.26;65.18;101337.80;1697036;83;25856;-74
2021/05/31 00:51:54;;;;;;;;;;;;;;;9.24;65.43;101328.62;1649693;83;26466;-74
2021/05/31 00:54:22;;;;;;;6.30;3.50;;;;;;;9.17;65.25;101326.23;1618792;83;26316;-74
2021/05/31 00:56:50;;;;;;;5.17;3.85;;;;;;;9.07;65.25;101326.02;1694472;83;25650;-74
2021/05/31 00:59:18;;;;;;;5.12;4.03;;;;;;;9.03;65.62;101330.86;1698644;83;27362;-74
2021/05/31 01:01:46;;;;;;;5.60;3.80;;;;;;;9.00;65.70;101325.81;1663289;83;25739;-73
2021/05/31 01:04:13;;;;;;;5.45;3.80;;;;;;;8.96;65.87;101326.32;1648171;84;26527;-74
2021/05/31 01:06:46;;;;;;;4.80;3.77;;;;;;;8.93;65.84;101324.80;1643701;84;25757;-74
2021/05/31 01:09:28;;;;;;;7.70;4.40;;;;;;;8.86;65.86;101317.55;1691217;83;26386;-74
2021/05/31 01:12:07;;;;;;;8.05;3.80;;;;;;;8.81;65.81;101319.88;1663635;84;27279;-74
2021/05/31 01:15:04;;;;;;;6.95;3.80;;;;;;;8.76;66.11;101320.84;1698685;83;25688;-73
2021/05/31 01:17:52;;;;;;;5.95;3.95;;;;;;;8.72;66.12;101319.48;1701975;81;25656;-76
2021/05/31 01:20:35;;;;;;;7.17;3.40;;;;;;;8.65;66.10;101316.60;1721765;81;25662;-76
2021/05/31 01:23:10;;;;;;;6.85;3.75;;;;;;;8.57;66.09;101319.23;1690720;83;25821;-75
2021/05/31 01:25:45;;;;;;;4.95;3.77;;;;;;;8.48;66.28;101318.33;1676747;83;27429;-76
2021/05/31 01:28:27;;;;;;;6.08;4.20;;;;;;;8.40;66.40;101318.77;1689230;83;25907;-75
2021/05/31 01:30:56;;;;;;;7.22;4.37;;;;;;;8.38;66.98;101322.09;1736539;81;25792;-74
2021/05/31 01:33:27;;;;;;;4.95;3.92;;;;;;;8.37;66.95;101324.40;1682975;83;25758;-75
2021/05/31 01:35:56;;;;;;;5.78;3.83;;;;;;;8.34;67.18;101318.87;1730931;81;25640;-74
2021/05/31 01:38:25;;;;;;;4.90;3.75;;;;;;;8.32;67.25;101313.34;1724964;81;27480;-74
2021/05/31 01:40:54;;;;;;;8.00;4.17;;;;;;;8.30;67.21;101319.33;1697500;82;25801;-74
2021/05/31 01:43:23;;;;;;;5.20;3.52;;;;;;;8.24;66.98;101319.92;1701373;81;25254;-73
2021/05/31 01:45:50;;;;;;;4.55;3.45;;;;;;;8.19;67.24;101315.56;1729625;81;26144;-74
2021/05/31 01:48:17;;;;;;;6.75;4.10;;;;;;;8.15;67.42;101319.01;1678162;83;25835;-74
2021/05/31 01:50:45;;;;;;;6.17;4.42;;;;;;;8.14;67.61;101315.17;1669713;84;28190;-73
2021/05/31 01:53:13;;;;;;;6.40;4.22;;;;;;;8.11;67.52;101316.80;1681041;84;25754;-74
2021/05/31 01:55:41;;;;;;;7.17;4.50;;;;;;;8.05;67.75;101310.26;1729571;81;26352;-74
2021/05/31 01:58:09;;;;;;;7.35;4.45;;;;;;;8.02;67.85;101312.41;1699761;81;26483;-73
2021/05/31 02:00:36;;;;;;;5.28;4.58;;;;;;;7.94;67.72;101311.81;1671387;83;25645;-73
2021/05/31 02:03:04;;;;;;;6.72;4.35;;;;;;;7.89;67.89;101314.09;1688075;83;27503;-74
2021/05/31 02:05:31;;;;;;;6.15;4.35;;;;;;;7.84;68.00;101316.39;1731369;81;25630;-73
2021/05/31 02:07:58;;;;;;;5.25;4.60;;;;;;;7.78;67.99;101318.34;1704588;81;26433;-74
2021/05/31 02:10:25;;;;;;;7.92;5.47;;;;;;;7.74;68.09;101325.78;1694493;83;26139;-73
2021/05/31 02:12:58;;;;;;;5.70;5.00;;;;;;;7.72;68.23;101325.58;1680601;83;25709;-74
2021/05/31 02:15:42;;;;;;;11.75;5.05;;;;;;;7.69;68.25;101328.08;1711423;83;27415;-74
2021/05/31 02:18:38;;;;;;;7.42;4.87;;;;;;;7.66;68.56;101329.70;1696388;82;25674;-74
2021/05/31 02:21:15;;;;;;;6.40;4.80;;;;;;;7.61;68.56;101331.16;1693934;81;25691;-74
2021/05/31 02:23:43;;;;;;;7.85;4.97;;;;;;;7.57;68.58;101327.93;1679227;83;26431;-74
2021/05/31 02:26:15;;;;;;;10.53;5.10;;;;;;;7.52;68.63;101331.56;1724810;81;25626;-73
2021/05/31 02:28:44;;;;;;;6.92;4.58;;;;;;;7.47;68.66;101328.97;1664576;83;27393;-74
2021/05/31 02:31:11;;;;;;;5.00;4.28;;;;;;;7.42;68.88;101328.09;1647066;81;25665;-73
2021/05/31 02:33:39;;;;;;;7.15;4.37;;;;;;;7.41;69.08;101328.24;1681771;81;25690;-74
2021/05/31 02:36:06;;;;;;;6.15;4.37;;;;;;;7.40;69.26;101334.06;1717001;82;25675;-74
2021/05/31 02:38:33;;;;;;;5.78;4.60;;;;;;;7.41;69.38;101334.91;1686476;82;25744;-73
2021/05/31 02:41:00;;;;;;;5.78;4.47;;;;;;;7.42;69.53;101336.08;1702998;82;27572;-73
2021/05/31 02:43:27;;;;;;;5.30;4.00;;;;;;;7.44;69.64;101331.95;1697980;83;25809;-74
2021/05/31 02:45:55;;;;;;;7.33;4.83;;;;;;;7.43;69.50;101328.94;1704273;82;25706;-73
2021/05/31 02:48:23;;;;;;;6.90;4.95;;;;;;;7.41;69.48;101330.42;1683281;82;25710;-74
2021/05/31 02:50:50;;;;;;;8.25;4.47;;;;;;;7.41;69.64;101333.58;1671567;82;25694;-73
2021/05/31 02:53:17;;;;;;;6.92;4.55;;;;;;;7.41;69.79;101329.58;1689735;82;27587;-74
2021/05/31 02:55:44;;;;;;;8.35;4.33;;;;;;;7.42;70.05;101330.75;1702619;83;25623;-73
2021/05/31 02:58:12;;;;;;;10.05;5.00;;;;;;;7.43;70.03;101327.11;1696971;81;25805;-74
2021/05/31 03:00:39;;;;;;;7.00;4.58;;;;;;;7.43;70.24;101332.93;1658717;83;25994;-74
2021/05/31 03:03:07;;;;;;;4.75;3.95;;;;;;;7.43;70.32;101325.78;1663295;84;25902;-74
2021/05/31 03:05:35;;;;;;;5.75;4.50;;;;;;;7.43;70.48;101329.78;1707915;83;27398;-74
2021/05/31 03:08:02;;;;;;;7.12;4.67;;;;;;;7.44;70.54;101328.77;1692090;81;25713;-74
2021/05/31 03:10:29;;;;;;;8.10;4.90;;;;;;;7.44;70.47;101328.77;1695564;83;25351;-74
2021/05/31 03:13:03;;;;;;;6.17;4.30;;;;;;;7.45;70.67;101334.47;1682354;83;26342;-73
2021/05/31 03:15:30;;;;;;;4.75;4.12;;;;;;;7.48;70.81;101334.19;1696279;83;25784;-73
2021/05/31 03:17:57;;;;;;;10.23;4.42;;;;;;;7.52;70.84;101333.38;1702945;82;28098;-74
2021/05/31 03:20:29;;;;;;;6.15;5.00;;;;;;;7.54;70.82;101331.40;1650459;82;25756;-74
2021/05/31 03:22:57;;;;;;;5.22;3.92;;;;;;;7.58;71.14;101330.95;1664283;82;25637;-74
2021/05/31 03:25:24;;;;;;;6.42;4.72;;;;;;;7.62;71.33;101332.33;1699167;82;25657;-73
2021/05/31 03:27:52;;;;;;;5.40;4.35;;;;;;;7.64;71.45;101327.69;1681337;82;25764;-74
2021/05/31 03:30:21;;;;;;;6.35;3.95;;;;;;;7.71;71.65;101331.92;1676469;84;28353;-74
2021/05/31 03:32:48;;;;;;;6.55;4.30;;;;;;;7.71;71.64;101332.77;1674707;84;25707;-74
2021/05/31 03:35:16;;;;;;;9.58;4.87;;;;;;;7.72;71.71;101333.58;1702715;82;25650;-74
2021/05/31 03:37:44;;;;;;;5.37;4.10;;;;;;;7.72;71.87;101330.92;1682954;82;25946;-74
2021/05/31 03:40:14;;;;;;;5.47;3.92;;;;;;;7.71;71.82;101337.26;1642992;82;26782;-73
2021/05/31 03:42:41;;;;;;;11.00;4.83;;;;;;;7.69;72.07;101330.75;1663357;82;27406;-74
2021/05/31 03:45:11;;;;;;;6.40;4.20;;;;;;;7.71;72.16;101331.44;1707027;82;25648;-74
2021/05/31 03:47:38;;;;;;;4.92;4.15;;;;;;;7.75;72.27;101337.30;1696896;82;26584;-74
2021/05/31 03:50:07;;;;;;;7.45;4.33;;;;;;;7.78;72.41;101334.34;1654570;83;25732;-74
2021/05/31 03:52:35;;;;;;;6.87;4.25;;;;;;;7.85;72.56;101334.58;1654932;83;25720;-73
2021/05/31 03:55:03;;;;;;;7.65;4.60;;;;;;;7.92;72.77;101333.81;1719844;82;28170;-73
2021/05/31 03:57:30;;;;;;;6.37;4.42;;;;;;;8.04;72.99;101334.44;1681139;82;25724;-74
2021/05/31 03:59:57;;;;;;;9.78;4.47;;;;;;;8.10;73.24;101331.99;1654864;82;26080;-74
2021/05/31 04:02:25;;;;;;;6.62;4.80;;;;;;;8.15;73.16;101332.84;1675963;82;25684;-73
2021/05/31 04:04:54;;;;;;;8.50;4.22;;;;;;;8.21;73.24;101333.59;1708587;82;26527;-74
2021/05/31 04:12:55;;;;;;;8.40;4.50;;;;;;;8.30;73.46;101324.66;1676005;83;25760;-74
2021/05/31 04:15:22;;;;;;;8.45;4.33;;;;;;;8.36;73.51;101322.22;1726231;81;25713;-74
2021/05/31 04:17:49;;;;;;;4.97;4.37;;;;;;;8.44;73.62;101322.30;1669891;82;25718;-74
2021/05/31 04:20:16;;;;;;;5.83;4.10;;;;;;;8.49;73.60;101317.80;1676448;81;27578;-74
2021/05/31 04:22:43;;;;;;;4.67;3.90;;;;;;;8.55;73.63;101318.02;1691353;82;25706;-73
2021/05/31 04:25:12;;;;;;;5.65;3.80;;;;;;;8.62;73.73;101324.91;1721395;82;25731;-74
2021/05/31 04:27:39;;;;;;;4.50;3.83;;;;;;;8.69;73.66;101326.46;1700062;82;26396;-74
2021/05/31 04:30:08;;;;;;;5.83;4.28;;;;;;;8.75;73.84;101326.67;1622811;82;26520;-74
2021/05/31 04:32:35;;;;;;;4.85;3.77;;;;;;;8.84;74.14;101322.22;1714014;81;27488;-74
2021/05/31 04:35:03;;;;;;;5.55;4.15;;;;;;;8.91;74.03;101326.79;1677832;82;26479;-74
2021/05/31 04:37:33;;;;;;;5.62;3.77;;;;;;;9.00;74.07;101325.00;1714791;81;25681;-74
2021/05/31 04:40:00;;;;;;;7.33;4.20;;;;;;;9.08;73.90;101323.70;1731571;81;26017;-74
2021/05/31 04:42:29;;;;;;;6.70;3.50;;;;;;;9.18;74.24;101320.40;1702205;81;25839;-73
2021/05/31 04:44:56;;;;;;;5.37;3.40;;;;;;;9.28;73.89;101322.47;1687444;82;27539;-74
2021/05/31 04:47:23;;;;;;;7.08;3.77;;;;;;;9.43;73.82;101319.49;1732648;81;25840;-74
2021/05/31 04:49:50;;;;;;;5.03;3.77;;;;;;;9.58;74.07;101321.07;1732464;81;25779;-73
2021/05/31 04:52:17;;;;;;;6.47;3.40;;;;;;;9.66;73.81;101319.75;1679938;81;25713;-74
2021/05/31 04:54:47;;;;;;;5.70;3.30;;;;;;;9.71;73.32;101323.59;1683668;81;25785;-74
2021/05/31 04:57:13;;;;;;;5.80;3.05;;;;;;;9.74;73.02;101328.63;1706125;82;28027;-74
2021/05/31 04:59:40;;;;;;;4.78;4.10;;;;;;;9.80;72.53;101326.64;1730881;81;25624;-74
2021/05/31 05:02:07;;;;;;;7.10;3.50;;;;;;;9.81;72.45;101326.14;1646830;82;25881;-74
2021/05/31 05:04:34;;;;;;;5.62;3.85;;;;;;;9.83;72.18;101322.80;1689900;81;25837;-74
2021/05/31 05:07:01;;;;;;;7.28;3.80;;;;;;;9.86;72.21;101329.14;1721128;81;25755;-74
2021/05/31 05:09:28;;;;;;;6.78;3.17;;;;;;;9.92;72.31;101324.50;1717799;82;27464;-74
2021/05/31 05:11:55;;;;;;;4.80;3.67;;;;;;;10.01;72.25;101324.33;1686805;83;26037;-73
2021/05/31 05:14:22;;;;;;;8.43;2.92;;;;;;;10.15;72.18;101318.86;1684557;83;25903;-74
2021/05/31 05:16:49;;;;;;;4.17;3.60;;;;;;;10.23;72.09;101321.53;1716471;82;26032;-74
2021/05/31 05:19:16;;;;;;;5.15;3.00;;;;;;;10.32;71.71;101326.39;1719974;82;26223;-74
2021/05/31 05:21:43;;;;;;;6.58;3.87;;;;;;;10.38;71.74;101323.03;1672401;83;28687;-74
2021/05/31 05:24:12;;;;;;;5.10;3.42;;;;;;;10.53;71.69;101329.39;1673134;82;25846;-74
2021/05/31 05:26:38;;;;;;;6.65;3.17;;;;;;;10.70;71.43;101321.67;1720810;82;25791;-74
2021/05/31 05:29:06;;;;;;;5.45;3.40;;;;;;;10.80;71.48;101329.02;1716149;82;26516;-74
2021/05/31 05:31:33;;;;;;;6.60;3.37;;;;;;;11.01;71.14;101327.14;1676015;82;26127;-74
2021/05/31 05:34:02;;;;;;;6.58;2.98;;;;;;;11.22;71.35;101329.59;1644250;83;27462;-74
2021/05/31 05:36:48;;;;;;;4.25;2.98;;;;;;;11.31;70.60;101337.91;1723920;82;25779;-74
2021/05/31 05:46:50;;;;;;;3.12;2.83;;;;;;;11.84;68.69;101326.97;1718870;82;27394;-74
2021/05/31 05:49:15;;;;;;;6.83;3.00;;;;;;;12.02;68.32;101331.03;1702575;82;25300;-74
2021/05/31 05:51:42;;;;;;;4.80;3.10;;;;;;;12.22;67.88;101325.53;1692052;83;25690;-74
2021/05/31 05:54:09;;;;;;;3.58;2.67;;;;;;;12.39;67.76;101319.00;1657472;83;26405;-74
2021/05/31 05:56:36;;;;;;;5.55;2.47;;;;;;;12.56;67.35;101317.00;1690842;83;25728;-74
2021/05/31 05:59:03;;;;;;;4.10;2.83;;;;;;;12.68;66.31;101318.75;1700097;83;28148;-75
2021/05/31 06:01:30;;;;;;;5.15;3.00;;;;;;;12.83;66.28;101323.11;1657273;84;26406;-74
2021/05/31 06:03:57;;;;;;;6.67;2.37;;;;;;;12.95;65.58;101323.50;1638009;83;25740;-74
2021/05/31 06:06:25;;;;;;;3.72;2.50;;;;;;;13.06;65.64;101318.55;1699615;83;26259;-75
2021/05/31 06:08:53;;;;;;;4.87;3.20;;;;;;;13.19;64.53;101315.20;1700936;83;25797;-74
2021/05/31 06:11:21;;;;;;;6.28;2.70;;;;;;;13.30;64.35;101316.05;1658425;83;28079;-75
2021/05/31 06:13:52;;;;;;;8.43;3.70;;;;;;;13.40;64.31;101324.69;1649816;83;26374;-75
2021/05/31 06:16:17;;;;;;;7.95;2.58;;;;;;;13.54;63.17;101322.48;1699462;83;26117;-74
2021/05/31 06:18:45;;;;;;;3.90;2.47;;;;;;;13.62;62.72;101325.59;1706342;83;25638;-74
2021/05/31 06:21:12;;;;;;;3.45;2.00;;;;;;;13.70;62.21;101320.09;1692943;81;26104;-73
2021/05/31 06:23:39;;;;;;;4.85;2.98;;;;;;;13.84;60.76;101320.55;1709547;82;28013;-74
2021/05/31 06:26:06;;;;;;;3.02;2.05;;;;;;;13.94;61.06;101322.44;1716474;81;25808;-74
2021/05/31 06:28:33;;;;;;;4.67;2.10;;;;;;;14.06;60.98;101324.94;1695891;83;25689;-74
2021/05/31 06:31:00;;;;;;;4.55;2.50;;;;;;;14.16;61.01;101320.56;1663338;83;26144;-74
2021/05/31 06:33:27;;;;;;;4.47;2.45;;;;;;;14.22;60.36;101314.44;1677674;83;25696;-75
2021/05/31 06:35:55;;;;;;;3.40;1.85;;;;;;;14.26;60.85;101318.41;1729596;81;27469;-75
2021/05/31 06:38:22;;;;;;;4.70;1.98;;;;;;;14.33;60.29;101315.27;1693245;83;25712;-74
2021/05/31 06:40:50;;;;;;;4.00;2.12;;;;;;;14.48;60.21;101318.72;1689491;81;26473;-75
2021/05/31 06:43:17;;;;;;;3.12;1.72;;;;;;;14.55;58.32;101312.37;1682822;81;25704;-74
2021/05/31 06:45:44;;;;;;;2.98;2.45;;;;;;;14.61;59.20;101312.93;1730113;81;25739;-75
2021/05/31 06:48:11;;;;;;;4.55;1.90;;;;;;;14.78;58.66;101309.95;1674135;83;27512;-74
2021/05/31 06:50:38;;;;;;;5.62;1.60;;;;;;;14.92;57.98;101311.20;1652520;83;26524;-75
2021/05/31 06:53:06;;;;;;;3.15;1.70;;;;;;;15.05;56.40;101311.28;1628550;83;26445;-74
2021/05/31 06:55:35;;;;;;;2.62;1.75;;;;;;;15.10;56.57;101306.61;1720396;81;26308;-74
2021/05/31 06:58:02;;;;;;;2.87;1.77;;;;;;;15.09;54.84;101307.15;1723761;81;26472;-74
2021/05/31 07:00:30;;;;;;;3.92;2.17;;;;;;;15.08;55.89;101308.67;1662012;81;28111;-74
2021/05/31 07:02:57;;;;;;;4.78;1.90;;;;;;;15.11;55.99;101309.13;1639649;84;25867;-75
2021/05/31 07:05:25;;;;;;;5.03;1.92;;;;;;;15.17;55.98;101311.02;1720655;81;25652;-75
2021/05/31 07:07:52;;;;;;;3.20;1.92;;;;;;;15.29;56.03;101312.12;1724670;81;25784;-75
2021/05/31 07:10:26;;;;;;;3.52;2.10;;;;;;;15.39;55.14;101300.45;1671459;83;25887;-75
2021/05/31 07:12:55;;;;;;;2.47;2.00;;;;;;;15.51;53.86;101295.33;1679483;83;45440;-74
2021/05/31 07:15:22;;;;;;;3.20;2.00;;;;;;;15.65;56.07;101294.36;1678932;83;25768;-75
2021/05/31 07:17:49;;;;;;;2.45;1.77;;;;;;;15.82;54.44;101299.70;1708047;82;26146;-74
2021/05/31 07:20:20;;;;;;;3.50;1.85;;;;;;;15.86;52.73;101300.12;1688087;82;25712;-74
2021/05/31 07:22:48;;;;;;;1.70;1.30;;;;;;;15.82;51.22;101302.41;1679844;83;26488;-75
2021/05/31 07:25:18;;;;;;;5.28;1.57;;;;;;;15.69;50.76;101305.58;1691184;81;27973;-75
2021/05/31 07:27:46;;;;;;;6.00;1.35;;;;;;;15.57;48.85;101308.56;1726569;81;25679;-75
2021/05/31 07:30:17;;;;;;;3.85;1.47;;;;;;;15.44;49.71;101304.75;1683503;81;25835;-74
2021/05/31 07:32:44;;;;;;;3.80;1.70;;;;;;;15.51;50.74;101300.73;1688710;82;25798;-75
2021/05/31 07:35:12;;;;;;;5.55;1.50;;;;;;;15.72;51.06;101303.80;1710685;81;27417;-74
2021/05/31 07:37:40;;;;;;;7.20;1.45;;;;;;;15.87;50.42;101301.77;1726811;82;27469;-75
2021/05/31 07:40:11;;;;;;;1.47;1.12;;;;;;;16.01;48.65;101293.52;1676707;83;25325;-75
2021/05/31 07:42:41;;;;;;;4.53;2.00;;;;;;;16.14;49.04;101296.20;1707510;81;25866;-75
2021/05/31 07:45:10;;;;;;;1.82;1.35;;;;;;;16.27;48.32;101300.83;1665420;83;26435;-75
2021/05/31 07:47:38;;;;;;;3.83;1.35;;;;;;;16.32;47.62;101293.41;1714489;81;26414;-75
2021/05/31 07:50:08;;;;;;;1.27;1.00;;;;;;;16.38;45.00;101302.08;1677813;83;27574;-75
2021/05/31 07:52:36;;;;;;;4.70;1.25;;;;;;;16.22;43.73;101292.48;1688382;82;26516;-75
2021/05/31 07:55:09;;;;;;;4.50;1.27;;;;;;;16.05;44.49;101296.11;1679036;82;25728;-75
2021/05/31 07:57:35;;;;;;;4.55;1.10;;;;;;;16.07;45.03;101290.49;1692016;82;25711;-74
2021/05/31 08:00:07;;;;;;;4.28;1.20;;;;;;;16.07;44.37;101291.34;1689063;83;26596;-75
2021/05/31 08:02:37;;;;;;;4.83;1.10;;;;;;;15.96;44.19;101292.45;1708725;81;27501;-74
2021/05/31 08:05:05;;;;;;;2.45;1.15;;;;;;;15.84;42.31;101296.28;1670102;82;25647;-75
2021/05/31 08:07:32;;;;;;;3.15;1.15;;;;;;;15.75;43.80;101296.14;1709437;82;25749;-75
2021/05/31 08:09:59;;;;;;;3.60;1.32;;;;;;;15.68;44.68;101297.14;1731300;81;25593;-75
2021/05/31 08:12:26;;;;;;;2.02;1.10;;;;;;;15.61;43.47;101294.96;1701431;81;26284;-74
2021/05/31 08:14:53;;;;;;;3.22;1.15;;;;;;;15.56;44.24;101291.52;1696103;82;27518;-75
2021/05/31 08:17:20;;;;;;;4.45;1.12;;;;;;;15.55;44.77;101291.70;1670047;84;25723;-75
2021/05/31 08:19:47;;;;;;;1.40;1.00;;;;;;;15.58;45.75;101291.30;1686877;84;25655;-74
2021/05/31 08:22:14;;;;;;;3.50;1.22;;;;;;;15.60;44.54;101291.42;1644191;84;26308;-74
2021/05/31 08:24:41;;;;;;;1.87;0.82;;;;;;;15.61;43.75;101289.02;1654439;84;25763;-74
2021/05/31 08:27:08;;;;;;;3.20;0.85;;;;;;;15.63;43.39;101284.79;1683688;84;28224;-74
2021/05/31 08:29:35;;;;;;;1.82;0.72;;;;;;;15.69;41.61;101290.21;1687596;84;26436;-74
2021/05/31 08:32:03;;;;;;;4.80;1.30;;;;;;;15.69;41.10;101279.92;1642368;84;26167;-75
2021/05/31 08:34:32;;;;;;;1.30;0.82;;;;;;;15.65;40.94;101294.36;1651978;84;26030;-74
2021/05/31 08:37:00;;;;;;;3.22;1.22;;;;;;;15.61;40.62;101290.37;1685975;84;25700;-75
2021/05/31 08:39:27;;;;;;;2.70;1.17;;;;;;;15.59;40.80;101284.34;1685282;84;27412;-75
2021/05/31 08:41:54;;;;;;;3.27;1.30;;;;;;;15.60;42.12;101290.58;1639493;84;25686;-75
2021/05/31 08:44:21;;;;;;;2.83;1.35;;;;;;;15.58;42.03;101285.39;1649601;85;25784;-75
2021/05/31 08:46:48;;;;;;;1.20;0.95;;;;;;;15.61;42.65;101286.31;1682171;83;26570;-75
2021/05/31 08:49:16;;;;;;;3.40;1.00;;;;;;;15.63;42.91;101286.14;1688497;84;25787;-75
2021/05/31 08:51:43;;;;;;;2.35;0.93;;;;;;;15.75;43.52;101279.94;1637073;84;28185;-75
2021/05/31 08:54:10;;;;;;;2.67;1.20;;;;;;;15.94;42.27;101283.20;1655422;83;26611;-75
2021/05/31 08:56:37;;;;;;;2.30;0.95;;;;;;;16.00;42.43;101285.08;1694755;83;26358;-74
2021/05/31 08:59:05;;;;;;;4.40;1.00;;;;;;;15.97;43.28;101284.13;1676736;84;25686;-75
2021/05/31 09:01:32;;;;;;;1.25;1.10;;;;;;;15.93;41.36;101277.47;1632693;84;25750;-75
2021/05/31 09:03:59;;;;;;;3.95;0.88;;;;;;;16.05;41.85;101282.60;1647051;84;27644;-75
2021/05/31 09:06:27;;;;;;;2.85;1.20;;;;;;;16.17;42.27;101285.00;1678049;83;25943;-75
2021/05/31 09:09:00;;;;;;;1.25;0.98;;;;;;;16.40;42.63;101287.28;1641110;84;25742;-75
2021/05/31 09:11:29;;;;;;;2.85;1.20;;;;;;;16.56;41.71;101289.62;1654521;84;26109;-75
2021/05/31 09:13:57;;;;;;;6.70;1.27;;;;;;;16.64;41.32;101281.28;1639796;84;25748;-75
2021/05/31 09:16:29;;;;;;;2.80;1.75;;;;;;;16.69;41.73;101284.20;1660688;84;27421;-75
2021/05/31 09:19:06;;;;;;;1.10;1.02;;;;;;;16.88;41.96;101282.50;1677594;83;25730;-75
2021/05/31 09:21:35;;;;;;;3.52;1.25;;;;;;;17.10;42.28;101283.08;1670908;83;25873;-75
2021/05/31 09:24:06;;;;;;;2.37;1.02;;;;;;;17.27;42.01;101278.34;1653132;83;25581;-75
2021/05/31 09:26:50;;;;;;;2.37;1.10;;;;;;;17.34;41.63;101278.31;1676630;82;25664;-75
2021/05/31 09:29:19;;;;;;;3.58;1.67;;;;;;;17.25;41.54;101283.66;1686886;83;27465;-75
2021/05/31 09:32:02;;;;;;;1.70;0.90;;;;;;;17.13;40.70;101279.95;1666736;83;26479;-75
2021/05/31 09:34:29;;;;;;;3.62;1.27;;;;;;;17.17;39.88;101275.77;1692442;83;26395;-74
2021/05/31 09:37:02;;;;;;;3.75;1.10;;;;;;;17.26;39.32;101269.89;1663776;83;26159;-74
2021/05/31 09:39:40;;;;;;;2.52;1.20;;;;;;;17.31;38.46;101270.61;1698850;83;25812;-75
2021/05/31 09:42:13;;;;;;;1.60;1.05;;;;;;;17.34;38.76;101249.88;1629832;83;27427;-75
2021/05/31 09:44:42;;;;;;;2.30;0.85;;;;;;;17.39;36.71;101271.71;1663447;84;25711;-75
2021/05/31 09:47:09;;;;;;;3.87;1.40;;;;;;;17.25;37.04;101259.28;1658502;84;26396;-75
2021/05/31 09:49:38;;;;;;;3.75;1.00;;;;;;;17.09;38.19;101261.94;1691434;83;25571;-75
2021/05/31 09:52:09;;;;;;;2.12;1.20;;;;;;;16.90;38.34;101263.66;1643107;83;25750;-75
2021/05/31 09:54:45;;;;;;;2.65;1.10;;;;;;;16.81;38.38;101262.21;1645292;84;27440;-74
2021/05/31 09:57:30;;;;;;;2.50;1.10;;;;;;;16.92;39.22;101264.79;1691944;83;25853;-75
2021/05/31 10:00:17;;;;;;;3.80;1.27;;;;;;;16.91;37.55;101260.44;1697013;83;25714;-74
2021/05/31 10:08:02;;;;;;;2.87;1.02;;;;;;;16.60;39.82;101254.86;1687845;83;27213;-74
2021/05/31 10:10:25;;;;;;;2.15;0.95;;;;;;;16.82;39.72;101254.42;1696582;83;25385;-75
2021/05/31 10:12:53;;;;;;;1.62;1.20;;;;;;;16.94;39.33;101249.17;1640550;83;26445;-75
2021/05/31 10:15:24;;;;;;;1.98;1.10;;;;;;;17.00;39.43;101244.25;1648609;84;25792;-76
2021/05/31 10:17:56;;;;;;;2.42;1.10;;;;;;;17.03;39.87;101251.96;1675065;83;25781;-75
2021/05/31 10:20:27;;;;;;;3.12;1.00;;;;;;;16.98;39.26;101256.36;1721685;81;27539;-75
2021/05/31 10:22:55;;;;;;;3.60;1.50;;;;;;;16.84;39.76;101256.39;1660739;83;25714;-75
2021/05/31 10:25:25;;;;;;;1.65;1.05;;;;;;;16.84;39.17;101244.22;1678930;83;25815;-75
2021/05/31 10:27:57;;;;;;;2.42;1.37;;;;;;;16.98;39.05;101250.95;1675927;83;25638;-75
2021/05/31 10:30:24;;;;;;;6.67;1.37;;;;;;;17.15;38.50;101229.13;1713459;83;25793;-75
2021/05/31 10:32:52;;;;;;;3.15;1.12;;;;;;;17.24;38.75;101232.72;1669116;82;27318;-75
2021/05/31 10:35:23;;;;;;;3.67;1.50;;;;;;;17.20;38.41;101236.07;1683060;83;25726;-75
2021/05/31 10:37:57;;;;;;;3.50;1.27;;;;;;;17.19;39.02;101237.13;1696768;81;26254;-75
2021/05/31 10:40:34;;;;;;;3.95;1.27;;;;;;;17.21;39.67;101233.69;1692084;83;25890;-75
2021/05/31 10:43:07;;;;;;;2.27;1.20;;;;;;;17.22;39.39;101236.17;1652819;83;25635;-75
2021/05/31 10:45:34;;;;;;;2.22;1.30;;;;;;;17.11;38.14;101234.67;1711956;81;27392;-74
2021/05/31 10:48:15;;;;;;;4.53;1.60;;;;;;;17.04;37.58;101227.09;1699826;81;25635;-75
2021/05/31 10:50:47;;;;;;;3.83;1.10;;;;;;;16.94;38.96;101236.48;1729918;81;25674;-75
2021/05/31 10:53:30;;;;;;;1.20;1.10;;;;;;;16.93;38.94;101231.28;1692934;83;25732;-75
2021/05/31 10:56:26;;;;;;;1.07;0.98;;;;;;;17.10;40.05;101221.66;1663564;83;26374;-75
2021/05/31 10:58:57;;;;;;;4.00;1.00;;;;;;;17.37;38.08;101219.13;1690543;83;27390;-75
2021/05/31 11:01:35;;;;;;;2.45;1.20;;;;;;;17.57;37.95;101210.41;1719864;81;25963;-75
2021/05/31 11:04:22;;;;;;;3.95;1.25;;;;;;;17.77;37.69;101203.48;1678517;83;25667;-75
2021/05/31 11:06:52;;;;;;;3.00;1.17;;;;;;;17.92;38.18;101202.65;1693292;83;25736;-74
2021/05/31 11:09:23;;;;;;;;;;;;;;;18.16;36.90;101207.27;1694206;83;26422;-75
2021/05/31 11:11:55;;;;;;;5.03;1.60;;;;;;;18.04;36.69;101214.98;1679993;81;28193;-75
2021/05/31 11:14:44;;;;;;;4.12;1.65;;;;;;;17.82;38.05;101216.39;1684156;81;25802;-75
2021/05/31 11:17:14;;;;;;;2.77;1.50;;;;;;;17.60;37.97;101222.16;1697450;83;25649;-74
2021/05/31 11:19:48;;;;;;;1.55;1.07;;;;;;;17.48;39.00;101212.19;1728727;81;26088;-75
2021/05/31 11:22:30;;;;;;;1.62;1.20;;;;;;;17.38;38.17;101214.03;1721825;81;25721;-75
2021/05/31 11:25:10;;;;;;;2.58;1.12;;;;;;;17.29;39.16;101214.48;1698188;81;28213;-76
2021/05/31 11:27:41;;;;;;;2.70;1.30;;;;;;;17.32;39.59;101210.00;1660792;83;25673;-75
2021/05/31 11:30:12;;;;;;;5.60;1.85;;;;;;;17.36;39.12;101209.87;1731282;81;26279;-75
2021/05/31 11:32:39;;;;;;;2.92;1.10;;;;;;;17.54;41.14;101205.42;1713057;81;26462;-75
2021/05/31 11:35:13;;;;;;;4.87;1.60;;;;;;;17.81;40.28;101195.77;1682768;81;25615;-75
2021/05/31 11:37:42;;;;;;;3.15;1.40;;;;;;;18.02;38.77;101188.63;1697809;82;27408;-75
2021/05/31 11:40:23;;;;;;;4.95;1.92;;;;;;;18.11;38.29;101180.52;1683748;82;25762;-75
2021/05/31 11:42:54;;;;;;;;;;;;;;;18.12;38.04;101187.59;1712301;82;25641;-75
2021/05/31 11:45:25;;;;;;;3.25;1.10;;;;;;;18.07;37.68;101192.31;1684311;82;25773;-75
2021/05/31 11:48:08;;;;;;;3.12;1.30;;;;;;;17.92;37.15;101191.81;1712356;82;26424;-75
2021/05/31 11:50:40;;;;;;;2.83;1.00;;;;;;;17.80;38.48;101192.74;1696851;81;27348;-75
2021/05/31 11:53:06;;;;;;;2.95;1.30;;;;;;;17.76;38.50;101190.17;1732156;81;25842;-75
2021/05/31 11:55:33;;;;;;;4.17;1.55;;;;;;;17.78;37.17;101188.91;1686645;82;25692;-75
2021/05/31 11:58:02;;;;;;;3.33;1.32;;;;;;;17.84;37.88;101188.53;1694886;82;25761;-75